Portada
METAR-TAF:

METAR-TAF

Aeroports :

Eureka, Nevada, Estats Units d'Amèrica

latitud: 39-36-05N, longitud: 116-00-20W, altitud: 1812 m

Observació

L'informe es va fer fa 43 minuts, a les 07:53 UTC
Vent 3 kt del Sud/Sud-Oest
Temperatura -1°C
Humitat 86%
Pressió 1021 hPa

METAR: KP68 260753Z AUTO 20003KT M01/M03 A3014 RMK AO1 SLP192 T10061033 400941044

Hora: 00:36 (08:36 UTC)


TAF: manca

Observacions i pronòstics meteorològics de més de 4000 aeroports (METAR i TAF).

Les estacions disponibles són els punts grocs i vermells al mapa.

Posi el ratolí al punt desitjat per veure el nom de l'estació.

Feu clic per veure les observacions i els pronòstics meteorològics.

Per canviar el mapa: feu clic els botons verds amb una creu de color negre per apropar; al botó verd amb un guió per allunyar la imatge; o en les fletxes verdes per a mapes adjacents.


METAR-TAF: